Time;durP1;ratioP1;P1;durP2;ratioP2;P2;SDS_P1;SDS_P2;PMS_P1;PMS_P2;Temp;Humidity;BMP_temperature;BMP_pressure;BME280_temperature;BME280_humidity;BME280_pressure;Samples;Min_cycle;Max_cycle;Signal;HPM_P1;HPM_P2
2023/05/27 00:01:33;;;;;;;6.50;4.10;;;;;;;;;;5120429;28;20498;-75
2023/05/27 00:04:04;;;;;;;13.23;4.47;;;;;;;;;;5121354;28;20804;-76
2023/05/27 00:06:33;;;;;;;9.00;4.77;;;;;;;;;;5121422;28;20450;-76
2023/05/27 00:09:05;;;;;;;6.63;4.70;;;;;;;;;;5118632;28;20446;-76
2023/05/27 00:11:33;;;;;;;7.53;5.00;;;;;;;;;;5118412;27;20538;-77
2023/05/27 00:14:00;;;;;;;7.97;4.90;;;;;;;;;;5117269;27;20985;-76
2023/05/27 00:16:31;;;;;;;6.83;4.73;;;;;;;;;;5119458;28;20463;-75
2023/05/27 00:18:59;;;;;;;8.13;4.70;;;;;;;;;;5134343;27;20470;-76
2023/05/27 00:21:27;;;;;;;7.10;4.50;;;;;;;;;;5119360;28;20483;-78
2023/05/27 00:23:57;;;;;;;8.77;4.70;;;;;;;;;;5119138;28;20466;-76
2023/05/27 00:26:27;;;;;;;6.57;4.60;;;;;;;;;;5120096;28;20798;-77
2023/05/27 00:28:55;;;;;;;11.17;5.30;;;;;;;;;;5119271;28;20431;-77
2023/05/27 00:31:23;;;;;;;10.10;5.93;;;;;;;;;;5118694;28;20531;-77
2023/05/27 00:33:51;;;;;;;10.73;5.40;;;;;;;;;;5119965;28;20454;-76
2023/05/27 00:36:19;;;;;;;9.53;5.00;;;;;;;;;;5120285;28;20438;-76
2023/05/27 00:38:50;;;;;;;7.20;4.30;;;;;;;;;;5126454;27;20520;-78
2023/05/27 00:41:18;;;;;;;6.50;4.37;;;;;;;;;;5118636;28;20494;-77
2023/05/27 00:43:50;;;;;;;11.43;5.20;;;;;;;;;;5117804;28;20495;-75
2023/05/27 00:46:23;;;;;;;6.87;4.67;;;;;;;;;;5116987;27;20546;-76
2023/05/27 00:48:52;;;;;;;9.77;5.00;;;;;;;;;;5121486;28;20470;-75
2023/05/27 00:54:53;;;;;;;6.77;4.67;;;;;;;;;;5059582;28;20508;-76
2023/05/27 00:57:34;;;;;;;10.90;5.00;;;;;;;;;;5119622;28;20447;-76
2023/05/27 01:00:08;;;;;;;12.00;4.90;;;;;;;;;;5115937;28;20492;-77
2023/05/27 01:02:42;;;;;;;8.53;4.67;;;;;;;;;;5115622;28;20458;-76
2023/05/27 01:05:10;;;;;;;11.30;5.10;;;;;;;;;;5123782;27;20462;-77
2023/05/27 01:07:44;;;;;;;8.17;4.37;;;;;;;;;;5137023;27;20460;-77
2023/05/27 01:10:18;;;;;;;10.03;4.17;;;;;;;;;;5137865;27;20543;-77
2023/05/27 01:13:03;;;;;;;11.90;4.90;;;;;;;;;;5142501;27;20805;-77
2023/05/27 01:15:33;;;;;;;8.17;4.73;;;;;;;;;;5144738;27;20548;-76
2023/05/27 01:18:02;;;;;;;9.60;4.77;;;;;;;;;;5143915;27;20510;-78
2023/05/27 01:20:40;;;;;;;11.00;5.37;;;;;;;;;;5142513;27;20481;-77
2023/05/27 01:23:13;;;;;;;7.23;5.20;;;;;;;;;;5141923;27;20465;-76
2023/05/27 01:25:43;;;;;;;8.73;5.23;;;;;;;;;;5141198;27;20422;-77
2023/05/27 01:28:11;;;;;;;8.10;4.77;;;;;;;;;;5141083;27;20505;-76
2023/05/27 01:30:38;;;;;;;9.50;5.47;;;;;;;;;;5142024;27;20454;-77
2023/05/27 01:33:09;;;;;;;13.03;5.10;;;;;;;;;;5137391;27;20546;-77
2023/05/27 01:35:42;;;;;;;8.60;4.50;;;;;;;;;;5137665;27;20407;-76
2023/05/27 01:38:12;;;;;;;9.60;5.50;;;;;;;;;;5138100;27;20446;-78
2023/05/27 01:40:42;;;;;;;15.17;5.10;;;;;;;;;;5136876;27;20481;-77
2023/05/27 01:43:10;;;;;;;8.53;5.20;;;;;;;;;;5137285;27;20949;-77
2023/05/27 01:45:38;;;;;;;15.80;5.50;;;;;;;;;;5136568;27;20449;-77
2023/05/27 01:48:06;;;;;;;10.83;5.00;;;;;;;;;;5137360;27;20450;-78
2023/05/27 01:50:34;;;;;;;10.67;3.80;;;;;;;;;;5135039;27;20462;-77
2023/05/27 01:53:03;;;;;;;8.20;4.53;;;;;;;;;;5134879;27;20510;-77
2023/05/27 01:55:30;;;;;;;8.40;4.50;;;;;;;;;;5134192;27;20446;-76
2023/05/27 01:57:59;;;;;;;8.93;4.60;;;;;;;;;;5134396;27;20431;-77
2023/05/27 02:00:27;;;;;;;8.53;4.73;;;;;;;;;;5134603;27;20474;-79
2023/05/27 02:06:32;;;;;;;;;;;;;;;;;;;;;
2023/05/27 02:09:25;;;;;;;9.13;4.77;;;;;;;;;;5136349;27;20437;-77
2023/05/27 02:12:16;;;;;;;;;;;;;;;;;;;;;
2023/05/27 02:14:48;;;;;;;8.83;5.37;;;;;;;;;;5136096;27;20421;-78
2023/05/27 02:17:17;;;;;;;7.20;4.33;;;;;;;;;;5137321;27;20452;-78
2023/05/27 02:19:46;;;;;;;8.37;4.53;;;;;;;;;;5138022;27;20561;-78
2023/05/27 02:22:19;;;;;;;9.10;4.90;;;;;;;;;;5138511;27;20450;-77
2023/05/27 02:25:02;;;;;;;8.30;4.63;;;;;;;;;;5137839;27;20450;-77
2023/05/27 02:27:34;;;;;;;11.00;5.13;;;;;;;;;;5138701;27;20450;-78
2023/05/27 02:30:23;;;;;;;9.33;4.63;;;;;;;;;;5138737;27;20501;-78
2023/05/27 02:33:03;;;;;;;9.03;4.63;;;;;;;;;;5138821;27;20457;-77
2023/05/27 02:35:34;;;;;;;10.23;4.83;;;;;;;;;;5139140;27;20450;-78
2023/05/27 02:38:01;;;;;;;7.93;5.30;;;;;;;;;;5139921;27;20448;-78
2023/05/27 02:40:29;;;;;;;10.07;5.00;;;;;;;;;;5140389;27;20496;-77
2023/05/27 02:42:57;;;;;;;10.03;4.77;;;;;;;;;;5145032;27;20541;-77
2023/05/27 02:45:26;;;;;;;10.43;4.40;;;;;;;;;;5147380;27;20438;-76
2023/05/27 02:47:55;;;;;;;7.97;5.37;;;;;;;;;;5152670;27;20472;-75
2023/05/27 02:50:22;;;;;;;11.10;5.13;;;;;;;;;;5152817;27;20458;-77
2023/05/27 02:52:49;;;;;;;11.33;5.13;;;;;;;;;;5149783;27;20514;-77
2023/05/27 02:55:17;;;;;;;9.60;4.77;;;;;;;;;;5149808;27;20446;-77
2023/05/27 02:57:45;;;;;;;12.77;4.93;;;;;;;;;;5149500;27;20433;-77
2023/05/27 03:00:13;;;;;;;9.90;4.90;;;;;;;;;;5149838;27;20478;-77
2023/05/27 03:02:42;;;;;;;9.10;4.50;;;;;;;;;;5149652;27;20505;-77
2023/05/27 03:05:10;;;;;;;9.40;5.00;;;;;;;;;;5148518;27;20457;-79
2023/05/27 03:07:38;;;;;;;6.60;4.57;;;;;;;;;;5150932;27;20936;-78
2023/05/27 03:10:06;;;;;;;8.80;4.80;;;;;;;;;;5150407;27;20450;-76
2023/05/27 03:12:33;;;;;;;8.60;5.67;;;;;;;;;;5148776;27;20446;-77
2023/05/27 03:15:01;;;;;;;9.80;5.70;;;;;;;;;;5148757;27;20465;-76
2023/05/27 03:17:29;;;;;;;10.27;5.10;;;;;;;;;;5150258;27;20446;-78
2023/05/27 03:19:58;;;;;;;10.63;4.97;;;;;;;;;;5138687;27;20478;-77
2023/05/27 03:22:26;;;;;;;8.23;4.40;;;;;;;;;;5130135;28;20523;-77
2023/05/27 03:24:54;;;;;;;11.03;4.90;;;;;;;;;;5135061;28;20446;-77
2023/05/27 03:27:22;;;;;;;8.50;5.17;;;;;;;;;;5133403;28;20471;-75
2023/05/27 03:29:50;;;;;;;12.13;5.17;;;;;;;;;;5133786;28;20482;-76
2023/05/27 03:32:18;;;;;;;8.00;5.60;;;;;;;;;;5133470;28;20451;-76
2023/05/27 03:34:47;;;;;;;11.83;5.20;;;;;;;;;;5134167;28;20454;-77
2023/05/27 03:37:16;;;;;;;8.13;4.90;;;;;;;;;;5133443;28;20457;-77
2023/05/27 03:39:44;;;;;;;7.43;3.90;;;;;;;;;;5132308;28;20449;-76
2023/05/27 03:42:11;;;;;;;10.70;4.97;;;;;;;;;;5133157;28;20423;-77
2023/05/27 03:44:39;;;;;;;7.30;4.57;;;;;;;;;;5132695;28;20447;-78
2023/05/27 03:47:07;;;;;;;10.97;4.80;;;;;;;;;;5132957;28;20431;-75
2023/05/27 03:49:34;;;;;;;8.23;5.13;;;;;;;;;;5132595;28;20459;-77
2023/05/27 03:52:02;;;;;;;13.63;5.50;;;;;;;;;;5131941;28;20461;-77
2023/05/27 03:54:32;;;;;;;7.77;5.27;;;;;;;;;;5130359;28;20443;-76
2023/05/27 03:56:59;;;;;;;10.53;5.10;;;;;;;;;;5125302;28;20474;-77
2023/05/27 03:59:27;;;;;;;10.93;5.47;;;;;;;;;;5117199;28;20447;-78
2023/05/27 04:01:55;;;;;;;14.50;5.37;;;;;;;;;;5114757;28;20514;-79
2023/05/27 04:04:22;;;;;;;12.73;5.27;;;;;;;;;;5114883;28;20434;-79
2023/05/27 04:06:50;;;;;;;6.93;4.87;;;;;;;;;;5117446;28;20594;-79
2023/05/27 04:09:17;;;;;;;11.00;5.73;;;;;;;;;;5119772;28;20439;-79
2023/05/27 04:11:46;;;;;;;10.67;5.30;;;;;;;;;;5119482;28;20467;-77
2023/05/27 04:14:13;;;;;;;8.67;5.40;;;;;;;;;;5120077;28;20459;-77
2023/05/27 04:16:41;;;;;;;8.10;5.40;;;;;;;;;;5117781;28;20451;-77
2023/05/27 04:19:09;;;;;;;11.57;5.87;;;;;;;;;;5114898;28;20889;-76
2023/05/27 04:21:37;;;;;;;11.07;5.17;;;;;;;;;;5116301;28;20506;-77
2023/05/27 04:24:05;;;;;;;8.77;5.17;;;;;;;;;;5114979;28;20471;-79
2023/05/27 04:26:33;;;;;;;9.83;5.20;;;;;;;;;;5113613;28;20480;-78
2023/05/27 04:29:03;;;;;;;8.13;4.70;;;;;;;;;;5112984;28;20443;-77
2023/05/27 04:31:30;;;;;;;13.30;5.70;;;;;;;;;;5111978;28;20550;-79
2023/05/27 04:33:58;;;;;;;15.47;6.33;;;;;;;;;;5118259;28;20447;-78
2023/05/27 04:36:33;;;;;;;11.97;5.73;;;;;;;;;;5118538;28;20455;-77
2023/05/27 04:39:01;;;;;;;9.90;6.13;;;;;;;;;;5125080;28;20461;-77
2023/05/27 04:41:29;;;;;;;8.27;5.20;;;;;;;;;;5127657;28;20506;-77
2023/05/27 04:43:58;;;;;;;14.13;6.40;;;;;;;;;;5127463;28;20430;-77
2023/05/27 04:46:30;;;;;;;8.00;5.10;;;;;;;;;;5127606;28;20518;-76
2023/05/27 04:48:58;;;;;;;12.07;5.30;;;;;;;;;;5126556;28;20525;-76
2023/05/27 04:51:25;;;;;;;8.83;5.70;;;;;;;;;;5125076;28;20458;-77
2023/05/27 04:53:54;;;;;;;9.47;6.00;;;;;;;;;;5120575;28;20447;-78
2023/05/27 04:56:21;;;;;;;10.83;5.90;;;;;;;;;;5120067;28;20431;-78
2023/05/27 04:58:50;;;;;;;12.30;6.00;;;;;;;;;;5120485;28;20450;-78
2023/05/27 05:01:18;;;;;;;9.33;5.50;;;;;;;;;;5119581;28;20526;-77
2023/05/27 05:04:18;;;;;;;10.03;5.77;;;;;;;;;;5120263;28;20512;-77
2023/05/27 05:07:01;;;;;;;12.30;5.73;;;;;;;;;;5118323;27;20483;-77
2023/05/27 05:09:43;;;;;;;11.23;5.97;;;;;;;;;;5121660;28;20447;-76
2023/05/27 05:12:12;;;;;;;9.57;5.73;;;;;;;;;;5097134;28;20451;-79
2023/05/27 05:17:56;;;;;;;12.43;5.43;;;;;;;;;;5121190;27;20445;-77
2023/05/27 05:20:32;;;;;;;11.40;5.77;;;;;;;;;;5117060;28;20475;-76
2023/05/27 05:23:10;;;;;;;9.77;6.13;;;;;;;;;;5115419;28;20446;-78
2023/05/27 05:25:42;;;;;;;12.87;5.00;;;;;;;;;;5119650;28;20446;-78
2023/05/27 05:28:10;;;;;;;10.83;5.03;;;;;;;;;;5118313;28;20470;-78
2023/05/27 05:30:38;;;;;;;11.20;6.07;;;;;;;;;;5117187;28;20447;-77
2023/05/27 05:33:06;;;;;;;12.93;5.07;;;;;;;;;;5115648;28;20972;-77
2023/05/27 05:35:34;;;;;;;11.40;5.40;;;;;;;;;;5115447;28;20518;-77
2023/05/27 05:38:03;;;;;;;8.80;6.07;;;;;;;;;;5115215;28;20454;-78
2023/05/27 05:40:30;;;;;;;9.60;6.00;;;;;;;;;;5115616;28;20477;-80
2023/05/27 05:42:58;;;;;;;10.30;5.77;;;;;;;;;;5116091;28;20478;-78
2023/05/27 05:45:25;;;;;;;9.97;5.30;;;;;;;;;;5118287;28;20450;-79
2023/05/27 05:47:53;;;;;;;9.07;5.40;;;;;;;;;;5119379;28;20474;-77
2023/05/27 05:50:21;;;;;;;13.60;5.30;;;;;;;;;;5121628;28;20463;-79
2023/05/27 05:52:49;;;;;;;14.73;5.83;;;;;;;;;;5125720;28;20439;-78
2023/05/27 05:55:18;;;;;;;11.83;5.00;;;;;;;;;;5126832;28;20546;-77
2023/05/27 05:57:46;;;;;;;12.73;5.43;;;;;;;;;;5126662;28;20443;-78
2023/05/27 06:00:14;;;;;;;10.90;5.10;;;;;;;;;;5127632;28;20487;-78
2023/05/27 06:02:42;;;;;;;12.03;5.73;;;;;;;;;;5126691;28;20869;-78
2023/05/27 06:05:11;;;;;;;11.90;4.80;;;;;;;;;;5126663;28;20538;-77
2023/05/27 06:07:38;;;;;;;11.70;5.70;;;;;;;;;;5120958;28;20469;-78
2023/05/27 06:10:06;;;;;;;11.03;5.10;;;;;;;;;;5121508;28;21008;-77
2023/05/27 06:12:36;;;;;;;10.87;4.90;;;;;;;;;;5121164;28;20439;-77
2023/05/27 06:15:03;;;;;;;13.80;6.97;;;;;;;;;;5118989;28;20447;-78
2023/05/27 06:17:31;;;;;;;12.60;5.40;;;;;;;;;;5117800;28;20460;-77
2023/05/27 06:19:58;;;;;;;11.40;5.60;;;;;;;;;;5130151;27;20454;-78
2023/05/27 06:22:26;;;;;;;7.67;4.73;;;;;;;;;;5139197;27;20474;-78
2023/05/27 06:24:54;;;;;;;12.83;5.23;;;;;;;;;;5140315;27;20519;-77
2023/05/27 06:27:21;;;;;;;14.20;7.93;;;;;;;;;;5140259;27;20474;-77
2023/05/27 06:29:51;;;;;;;8.10;5.27;;;;;;;;;;5141220;27;20455;-77
2023/05/27 06:32:18;;;;;;;11.63;4.90;;;;;;;;;;5141632;27;20470;-78
2023/05/27 06:34:46;;;;;;;10.20;4.47;;;;;;;;;;5141059;27;20940;-78
2023/05/27 06:37:13;;;;;;;11.97;6.57;;;;;;;;;;5141946;27;20434;-77
2023/05/27 06:39:41;;;;;;;10.37;4.97;;;;;;;;;;5142238;27;20446;-78
2023/05/27 06:42:09;;;;;;;8.47;4.93;;;;;;;;;;5142963;27;20466;-79
2023/05/27 06:44:37;;;;;;;12.07;5.50;;;;;;;;;;5143287;27;20495;-77
2023/05/27 06:47:06;;;;;;;11.80;5.57;;;;;;;;;;5142272;27;20438;-77
2023/05/27 06:49:34;;;;;;;10.47;5.67;;;;;;;;;;5145252;27;20445;-79
2023/05/27 06:52:10;;;;;;;11.00;5.80;;;;;;;;;;5144842;27;20461;-78
2023/05/27 06:54:38;;;;;;;9.43;5.07;;;;;;;;;;5143793;27;20473;-77
2023/05/27 06:57:06;;;;;;;8.57;5.20;;;;;;;;;;5143245;27;20426;-78
2023/05/27 06:59:33;;;;;;;8.47;5.20;;;;;;;;;;5141555;27;20458;-79
2023/05/27 07:02:01;;;;;;;9.83;5.73;;;;;;;;;;5141171;27;20515;-76
2023/05/27 07:04:30;;;;;;;11.13;5.40;;;;;;;;;;5140173;27;20499;-77
2023/05/27 07:06:58;;;;;;;17.60;6.23;;;;;;;;;;5142202;27;20434;-77
2023/05/27 07:09:26;;;;;;;13.80;6.37;;;;;;;;;;5140268;27;20515;-78
2023/05/27 07:11:53;;;;;;;9.83;5.43;;;;;;;;;;5140729;27;20440;-78
2023/05/27 07:14:21;;;;;;;9.30;5.13;;;;;;;;;;5142000;27;20445;-78
2023/05/27 07:16:49;;;;;;;12.93;6.07;;;;;;;;;;5142083;27;20465;-78
2023/05/27 07:19:17;;;;;;;17.97;5.70;;;;;;;;;;5135455;27;20470;-78
2023/05/27 07:21:46;;;;;;;8.23;4.50;;;;;;;;;;5118478;28;20970;-78
2023/05/27 07:24:14;;;;;;;10.93;5.20;;;;;;;;;;5117821;28;20458;-77
2023/05/27 07:26:41;;;;;;;10.53;5.33;;;;;;;;;;5116735;28;20439;-79
2023/05/27 07:29:08;;;;;;;12.73;6.50;;;;;;;;;;5119634;28;20447;-78
2023/05/27 07:31:35;;;;;;;14.20;6.17;;;;;;;;;;5118919;28;20463;-79
2023/05/27 07:34:03;;;;;;;9.00;5.03;;;;;;;;;;5119607;28;20446;-78
2023/05/27 07:36:31;;;;;;;11.23;5.47;;;;;;;;;;5120267;28;20451;-78
2023/05/27 07:39:00;;;;;;;10.93;5.07;;;;;;;;;;5120981;28;20491;-78
2023/05/27 07:41:29;;;;;;;9.63;4.90;;;;;;;;;;5119067;28;20486;-79
2023/05/27 07:43:57;;;;;;;9.53;5.57;;;;;;;;;;5118619;28;20511;-78
2023/05/27 07:46:27;;;;;;;10.03;5.33;;;;;;;;;;5118000;28;20450;-76
2023/05/27 07:48:55;;;;;;;10.23;5.10;;;;;;;;;;5118457;28;20454;-79
2023/05/27 07:51:22;;;;;;;10.13;5.50;;;;;;;;;;5136773;27;20476;-77
2023/05/27 07:53:50;;;;;;;11.00;5.57;;;;;;;;;;5137713;27;20442;-79
2023/05/27 07:56:19;;;;;;;7.73;5.00;;;;;;;;;;5137038;27;20509;-78
2023/05/27 07:58:47;;;;;;;9.50;5.67;;;;;;;;;;5133332;27;20439;-79
2023/05/27 08:01:14;;;;;;;9.20;5.40;;;;;;;;;;5126212;28;20549;-79
2023/05/27 08:03:42;;;;;;;12.77;5.60;;;;;;;;;;5120711;28;20446;-77
2023/05/27 08:06:10;;;;;;;9.77;5.20;;;;;;;;;;5138103;28;20442;-78
2023/05/27 08:08:37;;;;;;;9.47;6.30;;;;;;;;;;5139355;27;20450;-77
2023/05/27 08:11:05;;;;;;;10.03;5.07;;;;;;;;;;5138920;27;20470;-77
2023/05/27 08:13:34;;;;;;;8.23;6.10;;;;;;;;;;5140397;27;20905;-77
2023/05/27 08:16:01;;;;;;;10.30;5.30;;;;;;;;;;5145637;27;20426;-78
2023/05/27 08:18:29;;;;;;;7.77;5.47;;;;;;;;;;5144686;27;20452;-77
2023/05/27 08:20:57;;;;;;;12.27;5.73;;;;;;;;;;5146342;27;20491;-77
2023/05/27 08:23:25;;;;;;;8.90;6.20;;;;;;;;;;5144122;27;20520;-78
2023/05/27 08:25:52;;;;;;;10.63;5.87;;;;;;;;;;5145692;27;20442;-79
2023/05/27 08:28:21;;;;;;;12.90;5.70;;;;;;;;;;5148581;27;20849;-77
2023/05/27 08:30:50;;;;;;;9.67;5.60;;;;;;;;;;5147005;27;20499;-77
2023/05/27 08:33:18;;;;;;;13.20;6.70;;;;;;;;;;5149446;27;20938;-78
2023/05/27 08:35:45;;;;;;;10.90;5.90;;;;;;;;;;5152068;27;20475;-79
2023/05/27 08:38:13;;;;;;;6.70;5.00;;;;;;;;;;5156365;27;20901;-77
2023/05/27 08:40:43;;;;;;;8.57;5.30;;;;;;;;;;5156723;27;20465;-77
2023/05/27 08:43:12;;;;;;;12.20;6.00;;;;;;;;;;5154998;27;20477;-78
2023/05/27 08:45:43;;;;;;;7.20;5.43;;;;;;;;;;5154867;27;20437;-77
2023/05/27 08:48:12;;;;;;;11.77;6.40;;;;;;;;;;5157357;27;20446;-78
2023/05/27 08:50:42;;;;;;;11.73;7.13;;;;;;;;;;5156429;27;20519;-76
2023/05/27 08:53:10;;;;;;;9.80;5.83;;;;;;;;;;5152452;27;20474;-78
2023/05/27 08:55:39;;;;;;;8.43;5.70;;;;;;;;;;5146788;27;20573;-78
2023/05/27 08:58:22;;;;;;;8.80;6.10;;;;;;;;;;5149785;27;20495;-78
2023/05/27 09:00:49;;;;;;;8.63;5.67;;;;;;;;;;5151288;27;20460;-78
2023/05/27 09:03:20;;;;;;;9.77;5.53;;;;;;;;;;5145561;27;20465;-77
2023/05/27 09:05:48;;;;;;;8.87;5.80;;;;;;;;;;5151679;27;20471;-79
2023/05/27 09:08:16;;;;;;;9.60;6.40;;;;;;;;;;5148630;27;20464;-77
2023/05/27 09:10:44;;;;;;;9.40;6.50;;;;;;;;;;5145054;27;20533;-79
2023/05/27 09:13:14;;;;;;;9.00;5.67;;;;;;;;;;5146471;27;20441;-78
2023/05/27 09:15:43;;;;;;;9.27;6.13;;;;;;;;;;5144327;27;20430;-77
2023/05/27 09:18:10;;;;;;;9.50;6.40;;;;;;;;;;5141964;27;20434;-78
2023/05/27 09:20:40;;;;;;;11.67;6.27;;;;;;;;;;5123587;27;20562;-77
2023/05/27 09:23:09;;;;;;;8.00;5.90;;;;;;;;;;5123163;28;20487;-77
2023/05/27 09:25:37;;;;;;;8.37;5.47;;;;;;;;;;5133553;28;20439;-77
2023/05/27 09:28:08;;;;;;;8.40;7.00;;;;;;;;;;5130303;28;20447;-76
2023/05/27 09:30:35;;;;;;;9.63;5.97;;;;;;;;;;5128865;28;20528;-77
2023/05/27 09:33:04;;;;;;;8.90;6.17;;;;;;;;;;5128421;28;20462;-76
2023/05/27 09:35:32;;;;;;;7.80;6.33;;;;;;;;;;5124989;28;20480;-79
2023/05/27 09:38:10;;;;;;;8.63;6.17;;;;;;;;;;5123765;28;20524;-76
2023/05/27 09:40:40;;;;;;;9.63;6.50;;;;;;;;;;5119361;28;21052;-77
2023/05/27 09:43:08;;;;;;;10.57;5.90;;;;;;;;;;5118910;28;20487;-76
2023/05/27 09:45:36;;;;;;;9.70;6.33;;;;;;;;;;5119833;28;20467;-77
2023/05/27 09:48:09;;;;;;;10.17;6.30;;;;;;;;;;5118203;28;20461;-78
2023/05/27 09:50:40;;;;;;;8.70;6.57;;;;;;;;;;5115846;28;20450;-76
2023/05/27 09:53:12;;;;;;;9.80;6.53;;;;;;;;;;5116268;28;20427;-76
2023/05/27 09:55:51;;;;;;;7.73;6.70;;;;;;;;;;5118676;28;20462;-76
2023/05/27 09:58:27;;;;;;;10.10;6.27;;;;;;;;;;5119991;28;20454;-77
2023/05/27 10:01:00;;;;;;;8.40;6.23;;;;;;;;;;5120751;28;20478;-78
2023/05/27 10:03:37;;;;;;;8.73;6.53;;;;;;;;;;5118273;28;20475;-78
2023/05/27 10:06:05;;;;;;;8.70;5.53;;;;;;;;;;5119249;28;20446;-76
2023/05/27 10:08:41;;;;;;;7.60;6.27;;;;;;;;;;5118383;28;20442;-77
2023/05/27 10:11:16;;;;;;;7.87;6.03;;;;;;;;;;5118060;28;20466;-78
2023/05/27 10:13:45;;;;;;;8.10;6.00;;;;;;;;;;5119273;28;20534;-77
2023/05/27 10:16:31;;;;;;;9.17;5.90;;;;;;;;;;5118479;28;20450;-76
2023/05/27 10:18:59;;;;;;;9.40;6.23;;;;;;;;;;5118075;28;20454;-76
2023/05/27 10:21:29;;;;;;;7.60;5.60;;;;;;;;;;5116652;28;20479;-79
2023/05/27 10:23:59;;;;;;;10.30;6.03;;;;;;;;;;5116751;28;20447;-76
2023/05/27 10:26:33;;;;;;;6.57;5.50;;;;;;;;;;5118457;28;20461;-78
2023/05/27 10:29:11;;;;;;;9.57;6.10;;;;;;;;;;5118465;28;20644;-77
2023/05/27 10:31:45;;;;;;;9.33;6.30;;;;;;;;;;5118314;28;20478;-77
2023/05/27 10:34:13;;;;;;;10.30;6.03;;;;;;;;;;5118773;28;21004;-78
2023/05/27 10:36:40;;;;;;;10.37;6.40;;;;;;;;;;5120727;28;20801;-77
2023/05/27 10:39:16;;;;;;;8.70;6.60;;;;;;;;;;5118369;28;20458;-76
2023/05/27 10:41:44;;;;;;;10.10;6.60;;;;;;;;;;5117732;28;20477;-77
2023/05/27 10:44:12;;;;;;;7.37;5.50;;;;;;;;;;5117193;28;20439;-77
2023/05/27 10:46:40;;;;;;;8.60;5.77;;;;;;;;;;5116337;28;20455;-77
2023/05/27 10:49:11;;;;;;;8.47;6.07;;;;;;;;;;5116050;28;20817;-76
2023/05/27 10:51:39;;;;;;;8.97;6.10;;;;;;;;;;5116177;28;20478;-76
2023/05/27 10:54:07;;;;;;;8.23;5.63;;;;;;;;;;5116539;28;20519;-79
2023/05/27 10:56:35;;;;;;;12.13;6.87;;;;;;;;;;5121077;28;20481;-78
2023/05/27 10:59:04;;;;;;;10.10;6.83;;;;;;;;;;5122612;28;20435;-76
2023/05/27 11:01:33;;;;;;;9.03;5.73;;;;;;;;;;5120530;28;20516;-77
2023/05/27 11:04:01;;;;;;;8.10;6.37;;;;;;;;;;5125210;27;20454;-77
2023/05/27 11:06:29;;;;;;;7.30;5.70;;;;;;;;;;5142492;27;20430;-78
2023/05/27 11:08:56;;;;;;;6.30;5.70;;;;;;;;;;5134876;27;20450;-79
2023/05/27 11:11:27;;;;;;;7.47;5.70;;;;;;;;;;5125488;27;20465;-77
2023/05/27 11:14:00;;;;;;;13.43;12.20;;;;;;;;;;5125863;27;20443;-78
2023/05/27 11:16:40;;;;;;;7.10;5.90;;;;;;;;;;5126481;27;20497;-77
2023/05/27 11:19:20;;;;;;;7.53;5.70;;;;;;;;;;5113944;28;20443;-81
2023/05/27 11:22:00;;;;;;;6.27;5.47;;;;;;;;;;5123447;27;20454;-77
2023/05/27 11:24:35;;;;;;;7.80;6.10;;;;;;;;;;5131431;27;20480;-77
2023/05/27 11:27:22;;;;;;;6.37;5.40;;;;;;;;;;5130517;27;20458;-77
2023/05/27 11:32:35;;;;;;;6.90;6.20;;;;;;;;;;5123179;27;20422;-76
2023/05/27 11:35:05;;;;;;;7.70;6.00;;;;;;;;;;5139995;27;20467;-78
2023/05/27 11:37:37;;;;;;;7.13;5.97;;;;;;;;;;5138268;27;20450;-77
2023/05/27 11:40:15;;;;;;;8.87;6.43;;;;;;;;;;5143591;27;20477;-77
2023/05/27 11:42:52;;;;;;;6.13;5.53;;;;;;;;;;5144992;27;20530;-75
2023/05/27 11:45:22;;;;;;;6.80;5.60;;;;;;;;;;5142344;27;20441;-80
2023/05/27 11:47:50;;;;;;;8.03;5.47;;;;;;;;;;5139823;27;20434;-78
2023/05/27 11:50:22;;;;;;;6.77;6.07;;;;;;;;;;5120709;28;20466;-76
2023/05/27 11:52:53;;;;;;;6.80;6.20;;;;;;;;;;5140563;27;20827;-75
2023/05/27 11:55:21;;;;;;;8.77;6.40;;;;;;;;;;5137828;27;21016;-79
2023/05/27 11:57:54;;;;;;;7.90;6.07;;;;;;;;;;5133955;27;20452;-78
2023/05/27 12:00:23;;;;;;;8.97;6.50;;;;;;;;;;5122555;28;21063;-77
2023/05/27 12:02:51;;;;;;;6.60;6.00;;;;;;;;;;5130074;28;20484;-77
2023/05/27 12:05:19;;;;;;;9.13;5.87;;;;;;;;;;5130232;27;20511;-78
2023/05/27 12:07:46;;;;;;;8.87;6.07;;;;;;;;;;5127463;27;20434;-77
2023/05/27 12:10:14;;;;;;;6.93;5.90;;;;;;;;;;5125311;28;20988;-75
2023/05/27 12:12:44;;;;;;;5.83;5.33;;;;;;;;;;5127775;28;21157;-76
2023/05/27 12:15:12;;;;;;;6.73;5.77;;;;;;;;;;5133194;27;21045;-77
2023/05/27 12:17:41;;;;;;;6.07;5.50;;;;;;;;;;5133214;27;20450;-78
2023/05/27 12:20:11;;;;;;;8.17;5.73;;;;;;;;;;5132470;27;20466;-79
2023/05/27 12:22:42;;;;;;;7.40;6.07;;;;;;;;;;5117515;27;20474;-79
2023/05/27 12:25:10;;;;;;;8.47;5.90;;;;;;;;;;5111986;28;20468;-78
2023/05/27 12:27:38;;;;;;;10.73;6.43;;;;;;;;;;5118293;28;20426;-76
2023/05/27 12:30:06;;;;;;;7.70;5.90;;;;;;;;;;5132530;27;20473;-76
2023/05/27 12:32:34;;;;;;;7.40;6.47;;;;;;;;;;5130938;27;20446;-77
2023/05/27 12:35:03;;;;;;;10.23;6.70;;;;;;;;;;5132092;27;20500;-76
2023/05/27 12:37:30;;;;;;;7.23;6.07;;;;;;;;;;5132055;27;20941;-78
2023/05/27 12:39:58;;;;;;;6.50;5.90;;;;;;;;;;5132589;27;20470;-78
2023/05/27 12:42:26;;;;;;;7.07;5.77;;;;;;;;;;5131729;27;20445;-77
2023/05/27 12:44:53;;;;;;;7.93;6.27;;;;;;;;;;5132946;27;20462;-75
2023/05/27 12:47:21;;;;;;;9.80;5.97;;;;;;;;;;5131903;27;20430;-79
2023/05/27 12:49:49;;;;;;;5.50;5.00;;;;;;;;;;5111785;28;20504;-79
2023/05/27 12:52:18;;;;;;;6.53;5.57;;;;;;;;;;5131556;28;20525;-77
2023/05/27 12:54:45;;;;;;;6.87;6.30;;;;;;;;;;5132749;27;20454;-78
2023/05/27 12:57:13;;;;;;;6.30;5.47;;;;;;;;;;5135054;27;20495;-79
2023/05/27 12:59:41;;;;;;;7.47;5.83;;;;;;;;;;5132841;27;20437;-78
2023/05/27 13:02:09;;;;;;;7.30;6.10;;;;;;;;;;5135575;27;20453;-77
2023/05/27 13:04:36;;;;;;;8.93;6.40;;;;;;;;;;5135434;27;20491;-78
2023/05/27 13:07:04;;;;;;;9.10;6.00;;;;;;;;;;5137714;27;20533;-78
2023/05/27 13:09:33;;;;;;;8.50;5.70;;;;;;;;;;5139693;27;20434;-79
2023/05/27 13:12:04;;;;;;;7.30;5.70;;;;;;;;;;5135870;27;20454;-78
2023/05/27 13:14:31;;;;;;;7.10;5.47;;;;;;;;;;5135419;27;20499;-78
2023/05/27 13:16:59;;;;;;;7.37;6.27;;;;;;;;;;5135697;27;20445;-77
2023/05/27 13:19:26;;;;;;;7.37;6.20;;;;;;;;;;5134630;27;20944;-79
2023/05/27 13:21:54;;;;;;;7.30;6.30;;;;;;;;;;5141307;27;20442;-77
2023/05/27 13:24:21;;;;;;;6.60;5.90;;;;;;;;;;5135132;27;20489;-77
2023/05/27 13:26:51;;;;;;;7.03;5.73;;;;;;;;;;5134591;27;20460;-75
2023/05/27 13:29:19;;;;;;;8.20;5.60;;;;;;;;;;5135136;27;20550;-77
2023/05/27 13:31:46;;;;;;;6.73;5.53;;;;;;;;;;5134671;27;20504;-75
2023/05/27 13:34:14;;;;;;;5.67;5.07;;;;;;;;;;5134714;27;20430;-77
2023/05/27 13:36:41;;;;;;;7.80;5.37;;;;;;;;;;5134935;27;20474;-76
2023/05/27 13:39:09;;;;;;;7.33;5.30;;;;;;;;;;5118946;27;20451;-77
2023/05/27 13:41:36;;;;;;;7.40;5.10;;;;;;;;;;5114126;28;20548;-76
2023/05/27 13:44:06;;;;;;;8.20;5.10;;;;;;;;;;5114008;28;20481;-78
2023/05/27 13:46:33;;;;;;;7.50;5.80;;;;;;;;;;5114186;28;20478;-75
2023/05/27 13:49:01;;;;;;;9.83;6.30;;;;;;;;;;5113726;28;20443;-76
2023/05/27 13:51:32;;;;;;;7.50;5.00;;;;;;;;;;5114769;28;20482;-76
2023/05/27 13:53:59;;;;;;;7.83;5.00;;;;;;;;;;5114546;28;20459;-76
2023/05/27 13:56:27;;;;;;;6.70;5.00;;;;;;;;;;5114726;28;20447;-77
2023/05/27 13:58:55;;;;;;;5.27;4.77;;;;;;;;;;5114670;28;20454;-75
2023/05/27 14:01:26;;;;;;;5.90;4.80;;;;;;;;;;5122545;27;20518;-76
2023/05/27 14:03:54;;;;;;;6.13;4.90;;;;;;;;;;5133948;27;20465;-78
2023/05/27 14:06:21;;;;;;;9.07;4.60;;;;;;;;;;5134712;27;20460;-77
2023/05/27 14:08:49;;;;;;;6.87;5.07;;;;;;;;;;5134037;27;21236;-78
2023/05/27 14:11:16;;;;;;;9.03;5.80;;;;;;;;;;5133585;27;20481;-77
2023/05/27 14:13:44;;;;;;;8.73;5.33;;;;;;;;;;5133709;27;20442;-77
2023/05/27 14:16:11;;;;;;;5.17;4.30;;;;;;;;;;5133478;27;20418;-76
2023/05/27 14:18:41;;;;;;;6.40;4.57;;;;;;;;;;5133798;27;20446;-77
2023/05/27 14:21:08;;;;;;;8.60;4.70;;;;;;;;;;5114803;28;20478;-77
2023/05/27 14:23:36;;;;;;;7.90;5.00;;;;;;;;;;5112609;28;20893;-76
2023/05/27 14:26:04;;;;;;;5.80;4.77;;;;;;;;;;5113018;28;20454;-76
2023/05/27 14:28:35;;;;;;;8.33;4.53;;;;;;;;;;5113356;28;20554;-78
2023/05/27 14:31:03;;;;;;;6.47;4.93;;;;;;;;;;5112901;28;20565;-75
2023/05/27 14:33:30;;;;;;;5.50;4.37;;;;;;;;;;5112939;28;20459;-77
2023/05/27 14:35:59;;;;;;;6.50;4.77;;;;;;;;;;5124968;27;20513;-76
2023/05/27 14:38:27;;;;;;;6.07;4.60;;;;;;;;;;5132354;27;20446;-78
2023/05/27 14:40:54;;;;;;;5.90;4.20;;;;;;;;;;5136296;27;20608;-76
2023/05/27 14:43:22;;;;;;;5.73;4.30;;;;;;;;;;5136867;27;20493;-76
2023/05/27 14:45:49;;;;;;;7.33;3.57;;;;;;;;;;5136548;27;20433;-76
2023/05/27 14:48:17;;;;;;;5.93;4.80;;;;;;;;;;5136646;27;20503;-77
2023/05/27 14:50:44;;;;;;;5.17;4.17;;;;;;;;;;5137674;27;20458;-76
2023/05/27 14:53:13;;;;;;;5.17;3.93;;;;;;;;;;5137877;27;20552;-77
2023/05/27 14:55:41;;;;;;;5.40;4.20;;;;;;;;;;5136315;27;20525;-77
2023/05/27 14:58:08;;;;;;;4.83;3.80;;;;;;;;;;5137694;27;20441;-78
2023/05/27 15:00:36;;;;;;;5.60;3.80;;;;;;;;;;5136902;27;20446;-76
2023/05/27 15:03:03;;;;;;;6.00;3.70;;;;;;;;;;5136684;27;20446;-76
2023/05/27 15:05:30;;;;;;;4.73;3.50;;;;;;;;;;5134516;27;20802;-76
2023/05/27 15:07:58;;;;;;;8.03;3.80;;;;;;;;;;5135467;27;20453;-75